El-Giza, Egypt
Current Conditions -  °F | °C
As of 8:00 AM on Sunday 26 Oct 2014 (Local Time) from HECA Reporting Station
Haze Haze  
Wind Chill: 73°   Ceiling: Unl
Heat Index: 73°   Visibility: 1.2mi
Dew Point: 59°   Wind: 0mph
Humidity: 61%   Direction: NA
Pressure: 29.97"   Gusts: NA
Location:  30.08°N, 31.21°E
Report Text: HECA 260600Z 00000KT 2000 HZ NSC 23/15 Q1015 NOSIG
Loading
Personal Weather Stations






























Interactive Weather Map
Tropical Storm Tracking
New forecast layout! Learn more

10-Day Weather Forecast

Advertisements
Track Severe Weather on mobile